createdAt,value
2019-02-02T00:01:55.231Z,22.40
2019-02-02T00:05:11.335Z,22.40
2019-02-02T00:08:27.175Z,22.40
2019-02-02T00:11:40.758Z,22.40
2019-02-02T00:14:56.648Z,22.40
2019-02-02T00:18:11.849Z,22.40
2019-02-02T00:21:27.387Z,22.40
2019-02-02T00:24:43.271Z,22.40
2019-02-02T00:27:59.282Z,22.40
2019-02-02T00:31:15.071Z,22.40
2019-02-02T00:34:30.788Z,22.40
2019-02-02T00:37:46.386Z,22.30
2019-02-02T00:41:00.007Z,22.40
2019-02-02T00:44:22.699Z,22.40
2019-02-02T00:47:38.117Z,22.30
2019-02-02T00:50:54.059Z,22.40
2019-02-02T00:54:10.229Z,22.30
2019-02-02T00:57:23.843Z,22.30
2019-02-02T01:00:39.385Z,22.40
2019-02-02T01:03:55.518Z,22.30
2019-02-02T01:07:11.355Z,22.30
2019-02-02T01:10:27.349Z,22.30
2019-02-02T01:13:43.112Z,22.30
2019-02-02T01:16:59.036Z,22.40
2019-02-02T01:20:14.981Z,22.30
2019-02-02T01:23:30.223Z,22.30
2019-02-02T01:26:45.430Z,22.30
2019-02-02T01:30:00.995Z,22.30
2019-02-02T01:33:16.241Z,22.30
2019-02-02T01:36:31.521Z,22.30
2019-02-02T01:39:46.746Z,22.30
2019-02-02T01:43:02.646Z,22.30
2019-02-02T01:46:18.719Z,22.30
2019-02-02T01:49:34.293Z,22.30
2019-02-02T01:52:50.008Z,22.30
2019-02-02T01:56:05.755Z,22.30
2019-02-02T01:59:21.723Z,22.30
2019-02-02T02:02:37.843Z,22.30
2019-02-02T02:05:53.710Z,22.30
2019-02-02T02:09:09.601Z,22.30
2019-02-02T02:12:24.958Z,22.30
2019-02-02T02:15:40.177Z,22.30
2019-02-02T02:18:56.003Z,22.30
2019-02-02T02:22:12.034Z,22.30
2019-02-02T02:25:28.150Z,22.30
2019-02-02T02:28:31.423Z,22.30
2019-02-02T02:31:54.120Z,22.30
2019-02-02T02:35:16.812Z,22.30
2019-02-02T02:38:32.024Z,22.30
2019-02-02T02:41:48.099Z,22.30
2019-02-02T02:45:03.396Z,22.30
2019-02-02T02:48:19.168Z,22.30
2019-02-02T02:51:35.030Z,22.30
2019-02-02T02:54:51.125Z,22.30
2019-02-02T03:01:21.637Z,22.30
2019-02-02T03:04:44.322Z,22.30
2019-02-02T03:08:00.018Z,22.30
2019-02-02T03:11:16.003Z,22.30
2019-02-02T03:14:32.138Z,22.30
2019-02-02T03:17:47.449Z,22.30
2019-02-02T03:21:03.400Z,22.30
2019-02-02T03:24:19.425Z,22.30
2019-02-02T03:27:35.385Z,22.30
2019-02-02T03:30:51.456Z,22.30
2019-02-02T03:34:07.384Z,22.30
2019-02-02T03:37:10.641Z,22.30
2019-02-02T03:40:33.326Z,22.30
2019-02-02T03:43:56.744Z,22.30
2019-02-02T03:47:12.099Z,22.30
2019-02-02T03:50:27.399Z,22.30
2019-02-02T03:53:43.185Z,22.30
2019-02-02T03:56:59.319Z,22.30
2019-02-02T04:00:14.486Z,22.30
2019-02-02T04:03:30.186Z,22.30
2019-02-02T04:06:46.051Z,22.30
2019-02-02T04:10:01.915Z,22.30
2019-02-02T04:13:17.991Z,22.30
2019-02-02T04:16:33.238Z,22.30
2019-02-02T04:19:49.307Z,22.30
2019-02-02T04:23:04.566Z,22.30
2019-02-02T04:26:18.170Z,22.30
2019-02-02T04:29:40.858Z,22.20
2019-02-02T04:32:56.761Z,22.30
2019-02-02T04:36:12.855Z,22.30
2019-02-02T04:39:28.075Z,22.30
2019-02-02T04:46:08.458Z,22.30
2019-02-02T04:49:23.752Z,22.30
2019-02-02T04:52:37.448Z,22.30
2019-02-02T04:56:00.142Z,22.30
2019-02-02T04:59:15.766Z,22.30
2019-02-02T05:02:31.763Z,22.30
2019-02-02T05:05:47.399Z,22.30
2019-02-02T05:09:03.014Z,22.30
2019-02-02T05:12:18.563Z,22.30
2019-02-02T05:15:34.509Z,22.30
2019-02-02T05:18:50.313Z,22.30
2019-02-02T05:22:05.733Z,22.30
2019-02-02T05:25:21.771Z,22.30
2019-02-02T05:28:37.798Z,22.20
2019-02-02T05:31:53.814Z,22.30
2019-02-02T05:35:09.843Z,22.30
2019-02-02T05:38:25.874Z,22.30
2019-02-02T05:41:41.564Z,22.30
2019-02-02T05:44:57.218Z,22.30
2019-02-02T05:48:13.211Z,22.30
2019-02-02T05:51:29.009Z,22.20
2019-02-02T05:54:44.796Z,22.30
2019-02-02T05:58:00.526Z,22.30
2019-02-02T06:01:17.818Z,22.30
2019-02-02T06:04:33.440Z,22.30
2019-02-02T06:07:49.434Z,22.30
2019-02-02T06:11:05.460Z,22.20
2019-02-02T06:14:21.006Z,22.30
2019-02-02T06:17:36.967Z,22.20
2019-02-02T06:20:52.862Z,22.30
2019-02-02T06:24:08.918Z,22.30
2019-02-02T06:27:24.960Z,22.30
2019-02-02T06:30:40.555Z,22.30
2019-02-02T06:33:56.227Z,22.20
2019-02-02T06:37:12.219Z,22.30
2019-02-02T06:40:25.807Z,22.30
2019-02-02T06:43:41.619Z,22.20
2019-02-02T06:46:56.898Z,22.30
2019-02-02T06:50:13.036Z,22.20
2019-02-02T06:53:28.720Z,22.20
2019-02-02T06:56:44.792Z,22.20
2019-02-02T07:00:00.600Z,22.30
2019-02-02T07:03:16.380Z,22.20
2019-02-02T07:06:32.143Z,22.20
2019-02-02T07:09:48.051Z,22.20
2019-02-02T07:13:04.149Z,22.20
2019-02-02T07:16:20.195Z,22.20
2019-02-02T07:19:36.404Z,22.20
2019-02-02T07:22:52.400Z,22.20
2019-02-02T07:26:08.406Z,22.20
2019-02-02T07:29:24.346Z,22.20
2019-02-02T07:32:40.339Z,22.20
2019-02-02T07:35:56.279Z,22.20
2019-02-02T07:39:12.301Z,22.20
2019-02-02T07:42:25.905Z,22.20
2019-02-02T07:45:48.592Z,22.20
2019-02-02T07:49:03.853Z,22.20
2019-02-02T07:52:19.898Z,22.20
2019-02-02T07:55:36.079Z,22.20
2019-02-02T07:58:51.636Z,22.20
2019-02-02T08:02:07.538Z,22.20
2019-02-02T08:05:23.367Z,22.40
2019-02-02T08:08:39.199Z,22.20
2019-02-02T08:11:55.231Z,22.20
2019-02-02T08:15:11.158Z,22.20
2019-02-02T08:18:27.215Z,22.30
2019-02-02T08:21:42.447Z,22.30
2019-02-02T08:24:58.610Z,22.30
2019-02-02T08:28:13.986Z,22.30
2019-02-02T08:31:29.173Z,22.30
2019-02-02T08:34:44.672Z,22.30
2019-02-02T08:38:00.702Z,22.30
2019-02-02T08:41:16.638Z,22.30
2019-02-02T08:44:32.780Z,22.30
2019-02-02T08:47:48.581Z,22.30
2019-02-02T08:51:04.586Z,22.30
2019-02-02T08:54:20.619Z,22.30
2019-02-02T08:57:36.716Z,22.40
2019-02-02T09:01:03.377Z,22.40
2019-02-02T09:04:09.771Z,22.40
2019-02-02T09:07:24.969Z,22.40
2019-02-02T09:10:41.095Z,22.40
2019-02-02T09:13:56.438Z,22.40
2019-02-02T09:17:10.058Z,22.40
2019-02-02T09:20:25.809Z,22.40
2019-02-02T09:23:39.455Z,22.40
2019-02-02T09:27:02.135Z,22.40
2019-02-02T09:30:18.266Z,22.40
2019-02-02T09:33:34.266Z,22.40
2019-02-02T09:36:50.331Z,22.40
2019-02-02T09:40:06.139Z,22.40
2019-02-02T09:43:21.510Z,22.40
2019-02-02T09:46:37.284Z,22.40
2019-02-02T09:49:52.527Z,22.40
2019-02-02T09:53:08.399Z,22.40
2019-02-02T09:56:23.859Z,22.40
2019-02-02T09:59:27.114Z,22.40
2019-02-02T10:02:49.812Z,22.40
2019-02-02T10:06:05.771Z,22.40
2019-02-02T10:09:21.607Z,22.40
2019-02-02T10:12:37.601Z,22.40
2019-02-02T10:15:53.085Z,22.40
2019-02-02T10:19:09.080Z,22.40
2019-02-02T10:22:24.474Z,22.40
2019-02-02T10:25:40.491Z,22.40
2019-02-02T10:28:55.869Z,22.40
2019-02-02T10:32:11.939Z,22.40
2019-02-02T10:35:27.934Z,22.40
2019-02-02T10:38:44.168Z,22.40
2019-02-02T10:42:00.136Z,22.40
2019-02-02T10:45:16.932Z,22.40
2019-02-02T10:48:32.297Z,22.40
2019-02-02T10:51:45.984Z,22.40
2019-02-02T10:55:02.457Z,22.40
2019-02-02T10:58:17.689Z,22.40
2019-02-02T11:01:33.023Z,22.40
2019-02-02T11:04:48.787Z,22.40
2019-02-02T11:08:05.535Z,22.40
2019-02-02T11:11:19.287Z,22.40
2019-02-02T11:14:34.934Z,22.40
2019-02-02T11:17:50.271Z,22.40
2019-02-02T11:21:05.497Z,22.40
2019-02-02T11:24:21.589Z,22.40
2019-02-02T11:27:36.978Z,22.40
2019-02-02T11:30:53.091Z,22.40
2019-02-02T11:34:09.018Z,22.40
2019-02-02T11:37:24.826Z,22.40
2019-02-02T11:40:40.918Z,22.40
2019-02-02T11:43:56.694Z,22.40
2019-02-02T11:47:12.797Z,22.40
2019-02-02T11:50:28.819Z,22.40
2019-02-02T11:53:44.840Z,22.40
2019-02-02T11:57:00.682Z,22.40
2019-02-02T12:00:16.471Z,22.40
2019-02-02T12:03:32.191Z,22.40
2019-02-02T12:06:49.154Z,22.40
2019-02-02T12:10:04.891Z,22.40
2019-02-02T12:13:20.789Z,22.40
2019-02-02T12:16:36.888Z,22.40
2019-02-02T12:19:52.679Z,22.40
2019-02-02T12:23:07.938Z,22.40
2019-02-02T12:26:21.586Z,22.40
2019-02-02T12:29:44.269Z,22.40
2019-02-02T12:33:02.756Z,22.40
2019-02-02T12:36:16.627Z,22.40
2019-02-02T12:39:32.931Z,22.40
2019-02-02T12:42:48.216Z,22.40
2019-02-02T12:46:04.379Z,22.40
2019-02-02T12:49:20.411Z,22.40
2019-02-02T12:52:34.351Z,22.50
2019-02-02T12:55:49.915Z,22.40
2019-02-02T12:59:05.266Z,22.40
2019-02-02T13:02:21.233Z,22.50
2019-02-02T13:05:39.114Z,22.50
2019-02-02T13:08:53.520Z,22.50
2019-02-02T13:12:09.747Z,22.50
2019-02-02T13:15:25.809Z,22.50
2019-02-02T13:18:41.929Z,22.50
2019-02-02T13:21:57.130Z,22.40
2019-02-02T13:25:12.926Z,22.50
2019-02-02T13:28:29.679Z,22.40
2019-02-02T13:35:09.865Z,22.50
2019-02-02T13:38:25.182Z,22.40
2019-02-02T13:41:41.297Z,22.40
2019-02-02T13:44:57.313Z,22.40
2019-02-02T13:48:12.598Z,22.40
2019-02-02T13:51:28.783Z,22.40
2019-02-02T13:54:44.770Z,22.40
2019-02-02T13:57:58.352Z,22.40
2019-02-02T14:01:14.349Z,22.40
2019-02-02T14:04:30.150Z,22.40
2019-02-02T14:07:45.999Z,22.40
2019-02-02T14:11:01.345Z,22.40
2019-02-02T14:14:17.397Z,22.40
2019-02-02T14:17:32.718Z,22.40
2019-02-02T14:20:47.988Z,22.50
2019-02-02T14:24:03.253Z,22.50
2019-02-02T14:27:18.719Z,22.50
2019-02-02T14:30:34.098Z,22.50
2019-02-02T14:33:49.322Z,22.50
2019-02-02T14:37:04.534Z,22.40
2019-02-02T14:40:20.322Z,22.40
2019-02-02T14:43:36.458Z,22.40
2019-02-02T14:46:52.565Z,22.40
2019-02-02T14:50:08.481Z,22.40
2019-02-02T14:53:24.612Z,22.40
2019-02-02T14:56:47.657Z,22.40
2019-02-02T14:59:57.698Z,22.40
2019-02-02T15:03:13.017Z,22.40
2019-02-02T15:06:29.051Z,22.40
2019-02-02T15:09:44.290Z,22.40
2019-02-02T15:13:00.107Z,22.50
2019-02-02T15:16:16.121Z,22.50
2019-02-02T15:19:31.331Z,22.40
2019-02-02T15:22:47.338Z,22.50
2019-02-02T15:26:03.242Z,22.50
2019-02-02T15:29:18.837Z,22.50
2019-02-02T15:32:34.079Z,22.50
2019-02-02T15:35:50.157Z,22.50
2019-02-02T15:39:05.366Z,22.50
2019-02-02T15:42:20.939Z,22.50
2019-02-02T15:45:36.725Z,22.50
2019-02-02T15:48:52.764Z,22.50
2019-02-02T15:52:07.916Z,22.50
2019-02-02T15:55:23.300Z,22.50
2019-02-02T15:58:39.421Z,22.50
2019-02-02T16:01:54.774Z,22.60
2019-02-02T16:05:10.862Z,22.60
2019-02-02T16:08:26.887Z,22.60
2019-02-02T16:11:42.950Z,22.60
2019-02-02T16:14:58.910Z,22.60
2019-02-02T16:18:14.130Z,22.60
2019-02-02T16:21:30.171Z,22.60
2019-02-02T16:24:45.355Z,22.60
2019-02-02T16:28:01.309Z,22.60
2019-02-02T16:31:17.318Z,22.60
2019-02-02T16:34:33.385Z,22.60
2019-02-02T16:37:48.703Z,22.60
2019-02-02T16:41:04.715Z,22.60
2019-02-02T16:44:19.999Z,22.60
2019-02-02T16:47:35.366Z,22.60
2019-02-02T16:50:51.359Z,22.60
2019-02-02T16:54:06.731Z,22.60
2019-02-02T16:57:20.410Z,22.70
2019-02-02T17:00:43.100Z,22.70
2019-02-02T17:03:59.031Z,22.70
2019-02-02T17:07:14.300Z,22.60
2019-02-02T17:10:28.791Z,22.70
2019-02-02T17:13:44.767Z,22.60
2019-02-02T17:17:00.521Z,22.70
2019-02-02T17:20:15.726Z,22.70
2019-02-02T17:23:31.089Z,22.70
2019-02-02T17:26:47.147Z,22.70
2019-02-02T17:30:03.270Z,22.70
2019-02-02T17:33:18.559Z,22.70
2019-02-02T17:36:34.709Z,22.60
2019-02-02T17:39:48.346Z,22.70
2019-02-02T17:43:04.101Z,22.70
2019-02-02T17:46:19.510Z,22.70
2019-02-02T17:49:35.226Z,22.70
2019-02-02T17:52:50.553Z,22.60
2019-02-02T17:56:06.558Z,22.60
2019-02-02T17:59:20.408Z,22.60
2019-02-02T18:02:35.836Z,22.60
2019-02-02T18:05:51.886Z,22.60
2019-02-02T18:09:06.602Z,22.70
2019-02-02T18:12:29.301Z,22.70
2019-02-02T18:15:51.990Z,22.60
2019-02-02T18:19:14.850Z,22.60
2019-02-02T18:22:37.546Z,22.70
2019-02-02T18:26:00.223Z,22.70
2019-02-02T18:29:22.908Z,22.60
2019-02-02T18:32:39.007Z,22.70
2019-02-02T18:35:55.061Z,22.70
2019-02-02T18:39:10.331Z,22.70
2019-02-02T18:42:26.435Z,22.70
2019-02-02T18:45:42.404Z,22.70
2019-02-02T18:55:45.674Z,22.70
2019-02-02T18:59:01.775Z,22.70
2019-02-02T19:02:17.821Z,22.70
2019-02-02T19:05:35.507Z,22.70
2019-02-02T19:08:50.771Z,22.70
2019-02-02T19:15:30.387Z,22.70
2019-02-02T19:18:46.517Z,22.70
2019-02-02T19:22:02.416Z,22.70
2019-02-02T19:25:20.196Z,22.70
2019-02-02T19:28:39.963Z,22.70
2019-02-02T19:31:53.561Z,22.70
2019-02-02T19:35:16.306Z,22.70
2019-02-02T19:38:26.416Z,22.70
2019-02-02T19:41:41.635Z,22.80
2019-02-02T19:44:57.293Z,22.70
2019-02-02T19:48:12.552Z,22.80
2019-02-02T19:51:28.538Z,22.80
2019-02-02T19:54:44.579Z,22.80
2019-02-02T19:58:00.511Z,22.80
2019-02-02T20:01:17.533Z,22.80
2019-02-02T20:04:33.435Z,22.80
2019-02-02T20:07:49.442Z,22.80
2019-02-02T20:11:04.766Z,22.80
2019-02-02T20:14:20.731Z,22.80
2019-02-02T20:17:36.890Z,22.80
2019-02-02T20:20:52.242Z,22.80
2019-02-02T20:24:07.581Z,22.80
2019-02-02T20:27:23.459Z,22.80
2019-02-02T20:30:38.783Z,22.80
2019-02-02T20:33:54.879Z,22.80
2019-02-02T20:37:10.421Z,22.80
2019-02-02T20:40:25.653Z,22.80
2019-02-02T20:43:41.023Z,22.80
2019-02-02T20:46:57.032Z,22.80
2019-02-02T20:50:12.925Z,22.80
2019-02-02T20:53:28.994Z,22.80
2019-02-02T20:56:42.750Z,22.80
2019-02-02T20:59:58.813Z,22.90
2019-02-02T21:03:14.895Z,22.80
2019-02-02T21:06:30.065Z,22.90
2019-02-02T21:09:47.445Z,22.80
2019-02-02T21:13:03.123Z,22.80
2019-02-02T21:16:18.266Z,22.80
2019-02-02T21:19:34.394Z,22.80
2019-02-02T21:22:49.911Z,22.80
2019-02-02T21:26:05.901Z,22.80
2019-02-02T21:29:21.218Z,22.70
2019-02-02T21:32:37.333Z,22.70
2019-02-02T21:36:03.263Z,22.70
2019-02-02T21:39:10.065Z,22.70
2019-02-02T21:42:26.069Z,22.70
2019-02-02T21:45:41.383Z,22.70
2019-02-02T21:48:57.143Z,22.70
2019-02-02T21:52:12.777Z,22.60
2019-02-02T21:55:28.826Z,22.70
2019-02-02T21:58:44.701Z,22.60
2019-02-02T22:02:00.746Z,22.60
2019-02-02T22:05:16.648Z,22.60
2019-02-02T22:08:32.594Z,22.60
2019-02-02T22:11:48.627Z,22.60
2019-02-02T22:15:03.807Z,22.60
2019-02-02T22:18:21.725Z,22.60
2019-02-02T22:21:37.148Z,22.60
2019-02-02T22:24:52.387Z,22.60
2019-02-02T22:28:08.446Z,22.60
2019-02-02T22:31:24.141Z,22.60
2019-02-02T22:34:37.750Z,22.60
2019-02-02T22:38:00.434Z,22.50
2019-02-02T22:41:14.027Z,22.50
2019-02-02T22:44:36.713Z,22.50
2019-02-02T22:47:53.678Z,22.50
2019-02-02T22:51:09.708Z,22.50
2019-02-02T22:54:25.243Z,22.50
2019-02-02T22:57:41.395Z,22.50
2019-02-02T23:00:57.653Z,22.50
2019-02-02T23:04:12.829Z,22.50
2019-02-02T23:07:28.177Z,22.50
2019-02-02T23:11:10.284Z,22.50
2019-02-02T23:14:26.037Z,22.50
2019-02-02T23:17:41.970Z,22.50
2019-02-02T23:20:57.367Z,22.50
2019-02-02T23:24:13.517Z,22.40
2019-02-02T23:27:27.073Z,22.40
2019-02-02T23:30:42.476Z,22.40
2019-02-02T23:33:58.451Z,22.40
2019-02-02T23:37:14.483Z,22.40
2019-02-02T23:40:30.354Z,22.40
2019-02-02T23:43:46.571Z,22.40
2019-02-02T23:47:02.886Z,22.40
2019-02-02T23:50:18.950Z,22.40
2019-02-02T23:53:34.159Z,22.40
2019-02-02T23:56:49.345Z,22.40
